Time;durP1;ratioP1;P1;durP2;ratioP2;P2;SDS_P1;SDS_P2;PMS_P1;PMS_P2;Temp;Humidity;BMP_temperature;BMP_pressure;BME280_temperature;BME280_humidity;BME280_pressure;Samples;Min_cycle;Max_cycle;Signal;HPM_P1;HPM_P2
2021/06/22 00:02:18;;;;;;;2.25;1.38;;;18.80;79.90;;;18.10;74.45;95491.31;4946632;28;20070;-68
2021/06/22 00:04:44;;;;;;;2.42;1.63;;;18.70;80.60;;;18.03;74.77;95488.06;4972257;28;20093;-67
2021/06/22 00:07:13;;;;;;;6.22;1.90;;;18.60;81.20;;;17.99;75.20;95479.78;4953534;28;20458;-68
2021/06/22 00:09:39;;;;;;;3.20;1.57;;;18.60;81.20;;;17.89;75.00;95478.88;4946084;28;20035;-67
2021/06/22 00:12:06;;;;;;;3.75;1.60;;;18.40;82.10;;;17.84;75.51;95470.81;4968756;28;20031;-67
2021/06/22 00:14:31;;;;;;;5.95;1.80;;;18.40;82.30;;;17.82;75.88;95467.59;4963954;28;20103;-67
2021/06/22 00:16:57;;;;;;;3.08;1.25;;;18.50;82.10;;;17.79;76.32;95468.09;4970895;28;20442;-68
2021/06/22 00:19:23;;;;;;;3.95;1.60;;;18.50;82.00;;;17.74;76.26;95467.00;4964819;28;20498;-68
2021/06/22 00:21:49;;;;;;;5.00;1.98;;;18.40;82.30;;;17.66;76.62;95474.59;4943302;28;20631;-67
2021/06/22 00:24:14;;;;;;;4.07;1.92;;;18.30;82.80;;;17.67;76.55;95479.69;4985614;28;20118;-67
2021/06/22 00:26:40;;;;;;;4.65;1.80;;;18.50;82.50;;;17.70;76.55;95481.84;4983899;28;20034;-67
2021/06/22 00:29:06;;;;;;;3.97;1.52;;;18.60;82.10;;;17.68;76.43;95486.63;4954404;28;20092;-67
2021/06/22 00:31:32;;;;;;;4.32;2.00;;;18.40;82.20;;;17.60;76.85;95497.66;4937333;28;20113;-67
2021/06/22 00:33:57;;;;;;;4.82;2.00;;;18.30;82.60;;;17.51;76.99;95491.16;4966437;28;20134;-67
2021/06/22 00:36:23;;;;;;;5.38;1.92;;;18.10;83.10;;;17.49;77.12;95505.75;4933852;28;20067;-68
2021/06/22 00:38:49;;;;;;;4.45;1.70;;;18.20;83.00;;;17.45;77.30;95505.44;4954688;28;20034;-68
2021/06/22 00:41:14;;;;;;;3.92;2.03;;;18.10;83.00;;;17.39;77.20;95490.47;4952843;28;20188;-67
2021/06/22 00:43:40;;;;;;;5.43;1.73;;;18.10;83.00;;;17.41;77.07;95499.78;4934969;28;20044;-68
2021/06/22 00:46:06;;;;;;;5.38;2.28;;;18.20;82.80;;;17.36;77.75;95501.59;4950265;28;20043;-68
2021/06/22 00:48:32;;;;;;;6.15;1.70;;;18.00;82.80;;;17.31;78.00;95504.19;4949075;28;20392;-68
2021/06/22 00:50:58;;;;;;;3.83;1.73;;;18.00;82.90;;;17.27;77.81;95517.16;4964157;28;20040;-67
2021/06/22 00:53:24;;;;;;;5.20;1.80;;;17.90;83.10;;;17.25;78.14;95515.81;4950204;28;20641;-67
2021/06/22 00:55:54;;;;;;;4.25;1.75;;;17.90;83.10;;;17.22;78.45;95508.31;4963577;28;20043;-68
2021/06/22 00:58:20;;;;;;;4.03;2.00;;;17.90;83.30;;;17.19;78.44;95509.59;4949646;28;20042;-68
2021/06/22 01:00:46;;;;;;;3.47;1.67;;;17.90;83.30;;;17.20;77.61;95505.91;4981185;28;20034;-67
2021/06/22 01:03:11;;;;;;;4.55;1.70;;;18.00;83.20;;;17.22;78.50;95503.81;5001918;28;20086;-68
2021/06/22 01:05:37;;;;;;;5.70;1.60;;;18.00;82.90;;;17.23;77.52;95508.09;4988972;28;20062;-67
2021/06/22 01:08:03;;;;;;;5.78;1.52;;;18.10;82.90;;;17.25;77.47;95510.50;4966416;28;20089;-67
2021/06/22 01:10:29;;;;;;;4.20;1.90;;;18.00;82.90;;;17.21;78.39;95514.69;4960388;28;20451;-67
2021/06/22 01:12:55;;;;;;;3.03;2.03;;;17.90;83.20;;;17.14;77.89;95520.97;4966836;28;20043;-67
2021/06/22 01:15:23;;;;;;;5.72;1.70;;;17.80;83.60;;;17.12;78.28;95519.59;4974415;28;20065;-67
2021/06/22 01:17:53;;;;;;;4.53;1.90;;;17.90;83.60;;;17.18;79.07;95520.47;4967927;28;20058;-67
2021/06/22 01:20:22;;;;;;;4.15;1.80;;;18.10;83.00;;;17.23;78.35;95518.72;4950341;28;20416;-67
2021/06/22 01:22:47;;;;;;;8.57;1.85;;;18.10;82.70;;;17.22;77.78;95521.63;4959891;28;20510;-67
2021/06/22 01:25:14;;;;;;;2.65;1.55;;;18.00;82.80;;;17.21;78.33;95522.66;4953645;28;20097;-67
2021/06/22 01:27:39;;;;;;;4.03;1.50;;;18.00;83.30;;;17.23;78.47;95515.25;4970549;28;20109;-67
2021/06/22 01:30:06;;;;;;;4.00;1.58;;;18.10;82.70;;;17.28;78.50;95518.78;4972274;28;20074;-67
2021/06/22 01:32:32;;;;;;;3.15;1.60;;;18.20;82.40;;;17.31;78.22;95512.97;4975837;28;20043;-67
2021/06/22 01:34:57;;;;;;;2.55;1.60;;;18.30;82.50;;;17.35;77.80;95523.91;4969303;28;20411;-67
2021/06/22 01:37:23;;;;;;;3.72;1.73;;;18.30;82.30;;;17.34;78.36;95525.75;4984658;28;20109;-67
2021/06/22 01:39:49;;;;;;;5.00;1.70;;;18.20;82.40;;;17.38;78.16;95526.88;4970612;28;20296;-67
2021/06/22 01:42:15;;;;;;;2.72;1.80;;;18.30;82.20;;;17.43;78.12;95508.34;4988112;28;20364;-67
2021/06/22 01:44:42;;;;;;;3.28;1.77;;;18.40;82.30;;;17.46;78.65;95501.75;4951808;28;20086;-67
2021/06/22 01:47:08;;;;;;;2.00;1.30;;;18.50;82.00;;;17.47;78.51;95503.34;4968783;28;20046;-67
2021/06/22 01:49:34;;;;;;;3.95;1.88;;;18.40;81.90;;;17.44;77.80;95504.66;4982232;28;20027;-67
2021/06/22 01:51:59;;;;;;;4.38;1.70;;;18.40;82.30;;;17.48;78.74;95509.47;4968641;28;20869;-67
2021/06/22 01:54:25;;;;;;;4.05;1.35;;;18.50;82.10;;;17.53;78.43;95509.53;4962783;28;20507;-67
2021/06/22 01:56:52;;;;;;;10.32;1.90;;;18.60;82.20;;;17.55;78.27;95510.88;5004364;28;20042;-67
2021/06/22 01:59:18;;;;;;;5.43;1.42;;;18.50;82.10;;;17.59;78.31;95503.22;4971778;28;20043;-67
2021/06/22 02:01:44;;;;;;;4.88;1.77;;;18.60;81.60;;;17.56;77.92;95498.41;4963253;28;20042;-67
2021/06/22 02:04:10;;;;;;;4.63;1.73;;;18.50;82.10;;;17.60;78.55;95496.84;4965460;28;20052;-67
2021/06/22 02:06:36;;;;;;;2.90;1.30;;;18.60;82.00;;;17.58;78.63;95494.44;4968353;28;20035;-68
2021/06/22 02:09:03;;;;;;;5.18;1.88;;;18.60;81.80;;;17.61;78.20;95499.25;4954859;28;20034;-67
2021/06/22 02:11:29;;;;;;;4.18;1.85;;;18.60;81.70;;;17.65;78.27;95510.19;4927885;28;20059;-67
2021/06/22 02:13:54;;;;;;;5.00;1.60;;;18.60;82.00;;;17.67;78.45;95506.28;4953597;28;20039;-67
2021/06/22 02:16:20;;;;;;;3.72;1.63;;;18.70;81.80;;;17.69;78.10;95516.69;4977508;28;20075;-67
2021/06/22 02:18:46;;;;;;;5.22;1.90;;;18.70;81.60;;;17.67;77.89;95508.13;4956956;28;20515;-67
2021/06/22 02:21:12;;;;;;;6.10;2.15;;;18.70;81.60;;;17.70;77.88;95516.44;4977403;28;20418;-67
2021/06/22 02:23:39;;;;;;;4.90;2.50;;;18.70;81.60;;;17.71;78.78;95519.91;4974009;28;20709;-67
2021/06/22 02:26:05;;;;;;;6.28;3.08;;;18.70;81.50;;;17.72;78.07;95511.66;4981494;28;20046;-67
2021/06/22 02:28:31;;;;;;;5.63;2.38;;;18.70;81.50;;;17.71;78.12;95507.41;4990144;28;20088;-67
2021/06/22 02:30:57;;;;;;;4.55;1.85;;;18.70;81.70;;;17.72;78.50;95509.00;4976525;28;20118;-68
2021/06/22 02:33:24;;;;;;;3.75;1.65;;;18.80;81.40;;;17.75;78.55;95502.38;4978706;28;20039;-68
2021/06/22 02:35:50;;;;;;;6.13;4.82;;;18.80;81.30;;;17.78;78.25;95506.41;4954613;28;20047;-68
2021/06/22 02:38:15;;;;;;;6.38;4.22;;;18.80;81.40;;;17.78;78.59;95501.09;4960598;28;20105;-68
2021/06/22 02:40:41;;;;;;;4.80;2.65;;;18.80;81.60;;;17.80;78.80;95486.47;4980615;28;20035;-68
2021/06/22 02:43:07;;;;;;;4.25;2.83;;;18.90;81.40;;;17.83;78.07;95490.50;4969883;28;20380;-68
2021/06/22 02:45:36;;;;;;;4.32;1.77;;;19.00;81.30;;;17.87;78.82;95488.94;4965188;28;20074;-68
2021/06/22 02:48:03;;;;;;;2.85;1.70;;;19.00;81.20;;;17.89;78.68;95478.88;4967074;28;20406;-67
2021/06/22 02:50:29;;;;;;;6.32;1.58;;;19.00;81.00;;;17.91;78.53;95488.22;4964687;28;20217;-68
2021/06/22 02:52:54;;;;;;;5.40;2.10;;;19.00;81.00;;;17.93;78.47;95485.31;4952247;28;20476;-68
2021/06/22 02:55:20;;;;;;;3.50;1.80;;;19.00;81.00;;;17.93;78.33;95485.31;4967892;28;20071;-68
2021/06/22 02:57:52;;;;;;;14.18;9.98;;;19.00;80.80;;;17.94;78.51;95486.91;4950879;28;20039;-68
2021/06/22 03:00:20;;;;;;;23.38;18.77;;;19.00;81.00;;;17.95;78.40;95481.34;4976016;28;20131;-68
2021/06/22 03:02:45;;;;;;;14.85;11.48;;;19.10;81.30;;;17.98;78.57;95488.00;4985347;28;20105;-68
2021/06/22 03:05:11;;;;;;;8.10;3.65;;;19.10;81.20;;;18.00;78.27;95480.56;4978307;28;20541;-68
2021/06/22 03:07:37;;;;;;;3.70;2.15;;;19.10;80.90;;;18.00;78.25;95496.53;4969947;28;20035;-68
2021/06/22 03:10:08;;;;;;;5.10;1.90;;;19.10;80.90;;;18.00;78.93;95496.53;4939117;28;20046;-68
2021/06/22 03:12:34;;;;;;;;;;;19.10;80.70;;;17.95;79.39;95491.19;4954685;28;20378;-70
2021/06/22 03:15:00;;;;;;;2.50;1.60;;;19.00;81.10;;;17.90;78.20;95496.44;4983871;28;19943;-66
2021/06/22 03:17:25;;;;;;;5.97;1.70;;;18.80;81.40;;;17.87;78.17;95496.91;4953721;28;20127;-67
2021/06/22 03:19:52;;;;;;;4.13;1.50;;;18.90;81.50;;;17.89;78.85;95500.16;4960133;28;20039;-66
2021/06/22 03:22:17;;;;;;;5.03;1.70;;;19.00;81.50;;;17.91;78.38;95498.06;4931477;28;20055;-68
2021/06/22 03:24:43;;;;;;;6.00;1.70;;;19.00;81.30;;;17.89;78.82;95506.28;4949731;28;20050;-64
2021/06/22 03:27:09;;;;;;;4.10;1.60;;;19.00;81.50;;;17.89;79.00;95505.47;4953685;28;20034;-69
2021/06/22 03:29:34;;;;;;;4.72;1.70;;;19.10;81.40;;;17.93;78.77;95509.25;4999362;28;20050;-67
2021/06/22 03:32:00;;;;;;;4.28;1.75;;;19.10;81.30;;;17.98;79.17;95509.28;4982327;28;20042;-67
2021/06/22 03:34:26;;;;;;;5.45;1.73;;;19.20;81.10;;;18.01;78.93;95519.44;4969441;28;20114;-68
2021/06/22 03:36:52;;;;;;;4.65;1.70;;;19.20;81.20;;;18.06;78.98;95511.50;4960778;28;20035;-67
2021/06/22 03:39:17;;;;;;;4.40;1.65;;;19.30;81.20;;;18.09;78.95;95502.22;4984657;28;20041;-67
2021/06/22 03:41:43;;;;;;;5.53;1.60;;;19.40;80.80;;;18.12;79.09;95505.19;4956725;28;20061;-68
2021/06/22 03:44:09;;;;;;;7.60;1.90;;;19.40;81.00;;;18.15;78.48;95502.03;4984239;28;20035;-66
2021/06/22 03:46:34;;;;;;;3.58;1.55;;;19.40;80.80;;;18.17;78.80;95499.94;4978173;28;20042;-68
2021/06/22 03:49:00;;;;;;;4.80;1.65;;;19.40;80.80;;;18.18;79.07;95504.19;4968383;28;20117;-67
2021/06/22 03:51:26;;;;;;;4.68;1.52;;;19.40;80.90;;;18.21;79.05;95502.88;4958029;28;20039;-67
2021/06/22 03:53:52;;;;;;;2.88;1.60;;;19.50;80.90;;;18.23;79.16;95506.91;4965027;28;20459;-67
2021/06/22 03:56:18;;;;;;;9.15;2.08;;;19.50;80.80;;;18.25;78.81;95507.44;4970266;28;20468;-68
2021/06/22 03:58:44;;;;;;;3.78;1.73;;;19.50;80.70;;;18.25;78.70;95507.44;4963724;28;20050;-66
2021/06/22 04:01:09;;;;;;;4.43;2.10;;;19.50;80.50;;;18.27;78.41;95504.53;5000211;28;20026;-67
2021/06/22 04:03:35;;;;;;;5.07;1.60;;;19.50;80.60;;;18.28;78.51;95503.47;4965657;28;20082;-67
2021/06/22 04:06:01;;;;;;;5.43;1.60;;;19.50;80.40;;;18.30;79.08;95507.50;4971603;28;20043;-68
2021/06/22 04:08:27;;;;;;;3.67;1.90;;;19.50;80.40;;;18.28;78.88;95503.47;4967278;28;20130;-68
2021/06/22 04:10:53;;;;;;;4.72;1.90;;;19.50;80.50;;;18.32;79.13;95502.72;4958163;28;20063;-68
2021/06/22 04:13:19;;;;;;;5.03;2.10;;;19.60;80.30;;;18.35;78.32;95496.09;4962719;28;20038;-67
2021/06/22 04:15:45;;;;;;;5.85;2.00;;;19.60;80.30;;;18.36;78.54;95503.84;4932664;28;20035;-67
2021/06/22 04:18:10;;;;;;;2.90;1.60;;;19.60;80.20;;;18.36;78.94;95497.72;4967891;28;20140;-67
2021/06/22 04:20:37;;;;;;;4.70;1.65;;;19.60;80.10;;;18.35;78.35;95494.25;4962127;28;20094;-67
2021/06/22 04:23:04;;;;;;;5.18;1.58;;;19.60;79.80;;;18.39;78.20;95499.06;4951155;28;20040;-67
2021/06/22 04:25:29;;;;;;;3.83;1.70;;;19.60;79.90;;;18.40;78.56;95490.03;4965287;28;20149;-68
2021/06/22 04:27:55;;;;;;;4.75;2.17;;;19.70;80.10;;;18.40;78.52;95500.69;4963986;28;20447;-70
2021/06/22 04:30:22;;;;;;;5.18;2.25;;;19.60;80.20;;;18.35;77.88;95493.44;4949843;28;20121;-68
2021/06/22 04:32:48;;;;;;;4.00;2.40;;;19.50;80.50;;;18.32;78.52;95494.72;4963914;28;20053;-69
2021/06/22 04:35:14;;;;;;;4.28;2.70;;;19.50;80.60;;;18.25;78.06;95502.13;4945141;28;20039;-70
2021/06/22 04:37:42;;;;;;;5.22;2.40;;;19.30;80.80;;;18.20;79.77;95495.94;4949399;28;20129;-67
2021/06/22 04:40:10;;;;;;;6.93;1.92;;;19.30;81.20;;;18.17;78.44;95497.25;4965493;28;20037;-72
2021/06/22 04:42:35;;;;;;;4.72;2.08;;;19.40;81.30;;;18.19;78.58;95503.13;4968436;28;20042;-71
2021/06/22 04:45:01;;;;;;;3.97;2.40;;;19.40;81.20;;;18.21;79.10;95505.53;4949278;28;20047;-69
2021/06/22 04:47:27;;;;;;;6.85;2.60;;;19.40;81.10;;;18.23;78.54;95501.56;4965218;28;20114;-68
2021/06/22 04:49:53;;;;;;;6.47;2.70;;;19.40;80.80;;;18.25;79.21;95507.44;4961819;28;20034;-68
2021/06/22 04:52:18;;;;;;;5.53;2.38;;;19.50;81.10;;;18.32;78.78;95509.91;4966120;28;20514;-70
2021/06/22 04:54:44;;;;;;;5.20;3.58;;;19.60;80.90;;;18.33;79.49;95512.34;4958314;28;20094;-70
2021/06/22 04:57:12;;;;;;;3.63;2.75;;;19.50;80.80;;;18.31;79.09;95517.09;4947144;28;20114;-68
2021/06/22 04:59:38;;;;;;;5.20;2.65;;;19.50;80.80;;;18.36;79.15;95511.84;4964587;28;20039;-70
2021/06/22 05:02:04;;;;;;;6.60;2.50;;;19.70;80.50;;;18.41;79.08;95508.41;4953014;28;20418;-67
2021/06/22 05:04:30;;;;;;;6.78;2.75;;;19.80;80.50;;;18.49;80.00;95509.78;4954227;28;20043;-68
2021/06/22 05:06:56;;;;;;;7.63;4.63;;;19.90;80.90;;;18.57;80.15;95506.69;4958281;28;20042;-70
2021/06/22 05:09:22;;;;;;;4.20;2.70;;;20.00;80.60;;;18.62;78.73;95509.41;4948948;28;20035;-70
2021/06/22 05:11:48;;;;;;;4.35;2.20;;;19.90;80.30;;;18.69;79.55;95515.34;4953986;28;20134;-69
2021/06/22 05:14:14;;;;;;;6.70;2.60;;;20.00;80.00;;;18.71;79.47;95515.88;4987958;28;20090;-72
2021/06/22 05:16:39;;;;;;;7.28;2.60;;;20.00;80.40;;;18.75;78.89;95514.31;4989000;28;20046;-71
2021/06/22 05:19:05;;;;;;;5.03;2.58;;;20.00;79.90;;;18.76;78.75;95505.25;4946108;28;20117;-75
2021/06/22 05:21:31;;;;;;;5.70;2.30;;;20.00;79.90;;;18.82;78.44;95504.25;4968922;28;20043;-71
2021/06/22 05:23:57;;;;;;;6.38;2.55;;;20.10;80.10;;;18.91;78.90;95512.56;4940814;28;20455;-74
2021/06/22 05:26:22;;;;;;;5.57;2.40;;;20.30;79.70;;;18.98;78.64;95513.97;4970903;28;20113;-74
2021/06/22 05:28:49;;;;;;;5.70;2.25;;;20.50;79.10;;;19.06;78.55;95509.22;4986399;28;20054;-76
2021/06/22 05:31:15;;;;;;;5.53;1.98;;;20.50;78.50;;;19.13;78.84;95504.47;4978302;28;20051;-77
2021/06/22 05:33:41;;;;;;;4.20;2.40;;;20.60;79.00;;;19.21;78.77;95501.31;4953685;28;20631;-74
2021/06/22 05:36:07;;;;;;;5.88;2.10;;;20.70;78.90;;;19.28;77.76;95502.72;4971429;28;20062;-76
2021/06/22 05:38:33;;;;;;;4.28;2.00;;;20.70;78.60;;;19.31;78.40;95501.38;4976259;28;20046;-76
2021/06/22 05:40:58;;;;;;;6.38;2.08;;;20.80;78.40;;;19.39;77.68;95506.22;4956351;28;20515;-75
2021/06/22 05:43:24;;;;;;;3.38;1.95;;;20.80;77.80;;;19.43;77.08;95511.84;4935085;28;20506;-73
2021/06/22 05:45:50;;;;;;;5.65;1.90;;;20.90;77.50;;;19.45;77.20;95502.50;4969741;28;20050;-74
2021/06/22 05:48:15;;;;;;;3.45;2.28;;;20.80;76.80;;;19.43;77.37;95488.63;5007883;28;20042;-77
2021/06/22 05:50:42;;;;;;;3.90;2.20;;;20.70;77.10;;;19.43;77.03;95504.63;4968303;28;20038;-77
2021/06/22 05:53:07;;;;;;;5.47;2.10;;;20.70;77.80;;;19.43;76.79;95499.31;4980091;28;20031;-76
2021/06/22 05:55:33;;;;;;;4.32;1.85;;;20.80;77.90;;;19.46;76.65;95506.81;4955650;28;20050;-77
2021/06/22 05:57:59;;;;;;;5.40;2.08;;;20.80;77.70;;;19.44;77.16;95500.91;4969409;28;20146;-74
2021/06/22 06:00:25;;;;;;;4.60;1.77;;;20.70;77.80;;;19.45;77.06;95507.84;4953339;28;20053;-71
2021/06/22 06:02:51;;;;;;;6.72;2.00;;;20.80;77.40;;;19.46;76.57;95506.81;4970562;28;20039;-75
2021/06/22 06:05:22;;;;;;;3.42;2.40;;;20.70;77.60;;;19.48;76.84;95507.34;4951305;28;20046;-74
2021/06/22 06:07:48;;;;;;;6.07;2.20;;;20.80;77.70;;;19.50;77.13;95501.75;4967859;28;20035;-74
2021/06/22 06:10:14;;;;;;;9.85;2.20;;;21.00;77.60;;;19.60;77.07;95498.34;4956319;28;20047;-72
2021/06/22 06:12:40;;;;;;;6.38;2.20;;;21.20;76.60;;;19.80;76.98;95511.78;4966162;28;20351;-74
2021/06/22 06:15:06;;;;;;;4.82;1.63;;;21.60;75.80;;;20.03;77.24;95511.34;4964191;28;20148;-75
2021/06/22 06:17:32;;;;;;;8.75;1.95;;;21.80;74.80;;;20.34;76.83;95514.88;5002464;28;20508;-72
2021/06/22 06:19:58;;;;;;;4.50;1.73;;;22.30;74.40;;;20.67;76.09;95518.16;4974813;28;20505;-73
2021/06/22 06:22:24;;;;;;;6.57;1.65;;;22.60;72.30;;;20.99;75.43;95510.66;4959289;28;20032;-72
2021/06/22 06:24:51;;;;;;;5.10;1.80;;;22.90;70.60;;;21.31;74.53;95515.75;4977460;28;20109;-73
2021/06/22 06:27:20;;;;;;;7.40;4.40;;;23.10;69.60;;;21.60;73.62;95509.78;4985608;28;20173;-73
2021/06/22 06:32:15;;;;;;;3.90;1.45;;;23.80;68.20;;;22.12;72.35;95512.00;4966258;28;20051;-75
2021/06/22 06:34:41;;;;;;;3.22;1.48;;;24.10;66.50;;;22.38;71.44;95509.97;4989383;28;20084;-75
2021/06/22 06:37:07;;;;;;;4.88;1.50;;;24.40;64.30;;;22.62;70.56;95510.09;4980896;28;20240;-73
2021/06/22 06:39:33;;;;;;;7.45;3.00;;;24.50;62.80;;;22.84;69.34;95512.38;4989832;28;20065;-71
2021/06/22 06:41:58;;;;;;;5.38;2.05;;;24.80;62.10;;;23.08;68.99;95513.22;4966886;28;20423;-74
2021/06/22 06:44:24;;;;;;;4.93;1.73;;;25.00;62.20;;;23.33;68.42;95509.53;4985190;28;20166;-72
2021/06/22 06:46:50;;;;;;;4.22;1.52;;;25.30;61.20;;;23.54;67.24;95510.13;4949348;28;20162;-73
2021/06/22 06:49:16;;;;;;;3.92;1.55;;;25.50;60.00;;;23.73;66.78;95516.38;4951640;28;20040;-73
2021/06/22 06:51:41;;;;;;;2.45;1.23;;;25.60;58.80;;;23.91;65.43;95511.34;4989009;28;20223;-73
2021/06/22 06:54:07;;;;;;;3.95;1.35;;;25.90;58.00;;;24.09;64.80;95519.44;4973653;28;20035;-74
2021/06/22 06:56:33;;;;;;;4.63;1.50;;;26.10;57.70;;;24.27;64.34;95517.84;4959396;28;20174;-73
2021/06/22 06:58:58;;;;;;;2.28;1.70;;;26.50;56.20;;;24.51;64.39;95517.03;4934846;28;20063;-76
2021/06/22 07:01:24;;;;;;;4.13;1.55;;;26.60;56.20;;;24.76;64.08;95515.84;4962276;28;20055;-75
2021/06/22 07:03:50;;;;;;;4.35;2.63;;;27.00;55.30;;;24.97;62.90;95526.00;4971929;28;20027;-75
2021/06/22 07:06:16;;;;;;;3.78;1.40;;;27.20;54.10;;;25.21;62.26;95523.19;4984928;28;20054;-77
2021/06/22 07:08:41;;;;;;;4.65;1.40;;;27.50;53.40;;;25.47;61.50;95522.75;4987239;28;20069;-79
2021/06/22 07:11:07;;;;;;;3.63;1.38;;;27.70;51.80;;;25.63;60.20;95524.88;4960236;28;20538;-75
2021/06/22 07:13:33;;;;;;;4.15;1.17;;;27.60;50.00;;;25.80;58.97;95520.78;4970183;28;20035;-77
2021/06/22 07:15:59;;;;;;;3.33;1.27;;;28.00;50.00;;;25.94;58.54;95524.28;4954082;28;20507;-73
2021/06/22 07:18:29;;;;;;;3.53;0.80;;;28.00;50.00;;;26.04;58.16;95521.41;4986203;28;20105;-75
2021/06/22 07:20:55;;;;;;;5.82;2.60;;;28.20;49.80;;;26.17;57.24;95514.38;4973203;28;20062;-75
2021/06/22 07:23:21;;;;;;;3.95;1.20;;;28.40;48.60;;;26.29;56.20;95512.00;4983645;28;20116;-74
2021/06/22 07:25:46;;;;;;;3.10;1.08;;;28.50;48.20;;;26.29;55.59;95512.00;4980304;28;20035;-75
2021/06/22 07:28:12;;;;;;;3.33;1.10;;;28.30;48.00;;;26.31;55.85;95509.78;4985796;28;20140;-77
2021/06/22 07:30:38;;;;;;;3.13;1.10;;;28.60;48.50;;;26.41;55.31;95514.16;4967081;28;20034;-74
2021/06/22 07:33:04;;;;;;;1.95;0.88;;;28.80;47.20;;;26.50;55.25;95513.16;4993477;28;20437;-71
2021/06/22 07:35:32;;;;;;;4.82;0.82;;;29.00;47.50;;;26.61;54.61;95508.31;4960483;28;20523;-76
2021/06/22 07:37:59;;;;;;;2.92;0.88;;;29.10;44.90;;;26.71;53.75;95510.81;4976130;28;20042;-73
2021/06/22 07:40:25;;;;;;;2.58;1.13;;;29.20;44.10;;;26.85;53.95;95508.03;4956651;28;20031;-75
2021/06/22 07:42:51;;;;;;;4.40;1.55;;;29.60;45.60;;;27.06;53.61;95511.06;4934196;28;20147;-72
2021/06/22 07:45:17;;;;;;;3.30;0.93;;;29.80;45.80;;;27.27;53.71;95504.06;4968866;28;20577;-74
2021/06/22 07:47:43;;;;;;;2.17;1.10;;;30.10;44.90;;;27.46;53.21;95504.63;4985349;28;20523;-76
2021/06/22 07:50:10;;;;;;;2.95;1.13;;;30.40;46.30;;;27.64;53.17;95502.84;4960244;28;20045;-69
2021/06/22 07:52:35;;;;;;;5.00;1.90;;;30.50;43.70;;;27.76;52.55;95489.53;4976965;28;20481;-76
2021/06/22 07:55:01;;;;;;;2.67;1.20;;;30.60;43.10;;;27.91;51.10;95484.81;4978667;28;20117;-73
2021/06/22 07:57:27;;;;;;;3.00;0.98;;;30.80;42.40;;;28.04;51.96;95484.66;4985580;28;20039;-74
2021/06/22 07:59:53;;;;;;;2.33;0.88;;;31.00;42.60;;;28.15;50.89;95479.75;4992141;28;20058;-73
2021/06/22 08:02:18;;;;;;;3.67;1.17;;;31.00;42.10;;;28.30;50.63;95481.25;4969283;28;20129;-73
2021/06/22 08:04:44;;;;;;;3.58;1.00;;;31.10;43.30;;;28.44;50.51;95484.59;4949225;28;20070;-74
2021/06/22 08:07:10;;;;;;;4.75;1.02;;;31.30;43.00;;;28.55;50.00;95475.06;4960830;28;20031;-70
2021/06/22 08:09:36;;;;;;;3.40;0.95;;;31.40;41.60;;;28.66;49.68;95472.81;4971061;28;20037;-72
2021/06/22 08:12:01;;;;;;;5.22;1.27;;;31.60;41.40;;;28.77;49.71;95476.00;4952372;28;20035;-73
2021/06/22 08:14:27;;;;;;;2.58;1.00;;;31.60;40.70;;;28.85;49.60;95469.78;4966442;28;20045;-74
2021/06/22 08:16:53;;;;;;;3.33;1.25;;;31.70;41.00;;;28.99;49.65;95470.44;4969027;28;20035;-75
2021/06/22 08:19:19;;;;;;;3.47;1.00;;;32.10;41.00;;;29.18;49.16;95468.16;4967682;28;20059;-78
2021/06/22 08:21:44;;;;;;;3.90;1.60;;;32.20;41.00;;;29.39;48.66;95475.59;4966125;28;20058;-73
2021/06/22 08:24:10;;;;;;;4.82;1.27;;;32.20;39.90;;;29.60;48.68;95468.38;4974473;28;20030;-74
2021/06/22 08:26:36;;;;;;;1.75;0.90;;;32.60;40.70;;;29.75;47.44;95465.13;4973270;28;20069;-73
2021/06/22 08:29:02;;;;;;;1.83;0.80;;;32.60;39.20;;;29.94;47.04;95466.63;4950263;28;20113;-73
2021/06/22 08:31:28;;;;;;;2.72;1.08;;;32.60;39.40;;;30.12;46.84;95470.84;4957082;28;20491;-76
2021/06/22 08:33:53;;;;;;;3.15;1.00;;;32.90;39.30;;;30.30;46.07;95463.38;5016293;28;20451;-71
2021/06/22 08:36:19;;;;;;;3.45;1.20;;;32.80;38.40;;;30.44;46.29;95464.72;4937878;28;20047;-74
2021/06/22 08:38:45;;;;;;;3.00;1.05;;;33.00;39.80;;;30.49;45.76;95464.50;4971251;28;20035;-69
2021/06/22 08:41:10;;;;;;;4.38;1.08;;;33.00;38.50;;;30.63;45.25;95468.91;4986600;28;20035;-67
2021/06/22 08:43:36;;;;;;;2.65;0.80;;;33.20;38.50;;;30.60;44.58;95464.13;4956802;28;20594;-77
2021/06/22 08:46:04;;;;;;;3.65;2.03;;;32.90;38.70;;;30.56;44.43;95472.16;4958249;28;20039;-77
2021/06/22 08:48:30;;;;;;;3.17;1.60;;;33.00;37.90;;;30.69;44.22;95467.56;4956879;28;20122;-76
2021/06/22 08:50:56;;;;;;;4.07;1.10;;;33.10;38.40;;;30.66;44.09;95466.31;4973502;28;20043;-76
2021/06/22 08:53:22;;;;;;;2.88;0.90;;;33.30;37.70;;;30.77;44.26;95466.69;4969333;28;20030;-77
2021/06/22 08:55:47;;;;;;;8.07;4.00;;;33.50;38.80;;;30.89;44.17;95461.31;4949013;28;20130;-77
2021/06/22 08:58:15;;;;;;;5.55;1.45;;;33.30;38.10;;;30.81;42.84;95464.94;5002561;28;20046;-79
2021/06/22 09:00:46;;;;;;;3.75;1.10;;;33.30;36.70;;;30.82;42.61;95463.00;4970579;28;20035;-74
2021/06/22 09:03:22;;;;;;;3.50;1.08;;;33.40;37.50;;;30.88;42.83;95462.47;4985323;28;20031;-72
2021/06/22 09:05:53;;;;;;;4.07;1.10;;;33.40;37.90;;;30.88;42.88;95467.88;4978504;28;20047;-73
2021/06/22 09:08:33;;;;;;;2.60;0.95;;;33.40;38.00;;;30.89;42.71;95471.41;4960260;28;20043;-72
2021/06/22 09:11:07;;;;;;;3.97;1.10;;;33.60;37.80;;;30.73;42.99;95472.00;5004297;28;20030;-72
2021/06/22 09:13:34;;;;;;;7.03;1.23;;;33.30;38.40;;;30.74;43.83;95472.81;4969846;28;20523;-72
2021/06/22 09:15:59;;;;;;;5.07;1.02;;;33.50;38.20;;;30.83;43.80;95481.69;4970910;28;20035;-71
2021/06/22 09:18:32;;;;;;;2.65;0.90;;;33.60;38.10;;;30.95;41.92;95465.41;4971878;28;20380;-73
2021/06/22 09:21:03;;;;;;;1.63;0.95;;;33.60;36.90;;;31.04;43.64;95476.22;4968540;28;20042;-72
2021/06/22 09:23:38;;;;;;;3.95;0.90;;;33.80;38.80;;;31.20;41.50;95476.38;4975676;28;20039;-71
2021/06/22 09:26:25;;;;;;;3.28;1.00;;;34.10;36.90;;;31.35;41.85;95470.31;4989554;28;20129;-71
2021/06/22 09:28:52;;;;;;;4.32;1.45;;;34.30;36.70;;;31.48;42.43;95469.22;4956176;28;20050;-73
2021/06/22 09:31:20;;;;;;;7.55;4.95;;;34.40;36.00;;;31.62;41.43;95477.81;4973450;28;20027;-72
2021/06/22 09:33:48;;;;;;;2.97;1.10;;;34.70;35.60;;;31.71;41.96;95474.22;4989641;28;20121;-73
2021/06/22 09:36:21;;;;;;;3.33;0.75;;;34.90;34.60;;;31.84;41.19;95470.41;4967794;28;20047;-69
2021/06/22 09:38:58;;;;;;;5.18;2.22;;;35.10;35.10;;;32.01;42.26;95472.88;4983094;28;20455;-74
2021/06/22 09:41:29;;;;;;;3.00;1.30;;;35.40;36.30;;;32.21;40.90;95463.78;4986461;28;20039;-73
2021/06/22 09:44:00;;;;;;;3.90;1.42;;;35.40;33.50;;;32.41;39.79;95464.81;4971972;28;20042;-72
2021/06/22 09:46:47;;;;;;;4.03;1.00;;;35.50;35.00;;;32.61;39.90;95463.06;4968084;28;20122;-73
2021/06/22 09:49:29;;;;;;;5.70;1.02;;;35.50;35.10;;;32.66;38.67;95465.53;4965571;28;20045;-73
2021/06/22 09:54:35;;;;;;;2.55;0.98;;;35.80;34.20;;;32.71;39.60;95465.28;4948643;28;20078;-72
2021/06/22 09:57:10;;;;;;;1.95;0.98;;;35.40;34.40;;;32.75;38.33;95465.38;4953609;28;20058;-74
2021/06/22 10:00:04;;;;;;;1.98;1.00;;;35.60;34.20;;;32.88;38.96;95459.59;5000676;28;20054;-73
2021/06/22 10:02:29;;;;;;;6.97;1.00;;;35.80;34.30;;;33.13;40.08;95467.63;4978880;28;20050;-73
2021/06/22 10:05:00;;;;;;;3.47;1.10;;;36.40;33.80;;;33.44;38.44;95469.63;4976829;28;20543;-75
2021/06/22 10:07:27;;;;;;;2.20;1.08;;;36.90;32.40;;;33.79;39.63;95464.28;4949432;28;20602;-73
2021/06/22 10:10:01;;;;;;;2.00;0.88;;;37.60;32.40;;;34.22;35.80;95459.84;4977137;28;20065;-66
2021/06/22 10:12:28;;;;;;;3.03;1.35;;;38.00;29.10;;;34.35;38.35;95464.06;4974294;28;20053;-66
2021/06/22 10:14:59;;;;;;;4.05;2.10;;;37.30;31.60;;;34.37;38.03;95459.81;4986551;28;20225;-67
2021/06/22 10:17:26;;;;;;;2.58;1.30;;;37.20;32.40;;;34.55;37.21;95460.22;4955104;28;20695;-67
2021/06/22 10:19:54;;;;;;;3.55;1.00;;;37.50;31.30;;;34.68;36.97;95455.41;4969971;28;20050;-66
2021/06/22 10:22:26;;;;;;;3.03;0.95;;;37.40;31.30;;;34.99;34.84;95460.75;4974767;28;20026;-71
2021/06/22 10:24:54;;;;;;;2.28;0.82;;;38.00;29.90;;;35.39;36.50;95456.03;4938343;28;20041;-65